Latest Weather Observations for Pound Creek

IDV60801

Issued at 11:31 pm EST Saturday 1 August 2015 (issued every 30 minutes, with the page automatically refreshed every 10 minutes)

About weather observations | Map of weather stations | Latest weather observations for VIC | Other Formats
Station Details ID: 085099 Name: POUND CREEK Lat: -38.63 Lon: 145.81 Height: 3.0 m
Data from the previous 72 hours. | See also: Recent months at Pound Creek
Date/Time
EST
Temp
°C
App
Temp
°C
Dew
Point
Rel
Hum
%
Delta-T
°C
Wind Press
QNH
hPa
Press
MSL
hPa
Rain
since 9 am
mm
Dir
 
Spd
km/h
Gust
km/h
Spd
kts
Gust
kts
01/11:30pm 6.5 3.4 3.5 81 1.3 NNW 9 13 5 7 1015.1 1015.1 0.2
01/11:00pm 6.6 3.8 3.0 78 1.5 NNW 7 11 4 6 1014.9 1014.9 0.2
01/10:30pm 6.8 3.6 3.1 77 1.5 NNW 9 13 5 7 1015.4 1015.4 0.2
01/10:00pm 6.8 3.7 3.4 79 1.4 NNW 9 13 5 7 1015.3 1015.3 0.2
01/09:30pm 6.4 3.2 3.0 79 1.4 NNW 9 13 5 7 1015.3 1015.3 0.2
01/09:00pm 6.7 3.5 3.3 79 1.4 NNW 9 13 5 7 1015.3 1015.3 0.2
01/08:30pm 5.3 2.3 2.1 80 1.3 N 7 9 4 5 1015.4 1015.4 0.2
01/08:00pm 6.3 3.4 2.6 77 1.5 N 7 11 4 6 1015.4 1015.4 0.2
01/07:30pm 7.5 4.9 3.0 73 1.9 NNW 6 7 3 4 1015.6 1015.6 0.2
01/07:00pm 8.0 4.9 3.7 74 1.8 W 9 15 5 8 1015.5 1015.5 0.2
01/06:30pm 7.8 5.2 3.3 73 1.9 NNW 6 9 3 5 1015.1 1015.1 0.2
01/06:00pm 7.8 5.2 3.3 73 1.9 NW 6 7 3 4 1014.8 1014.8 0.2
01/05:30pm 8.4 6.3 3.7 72 2.0 NW 4 7 2 4 1014.5 1014.5 0.2
01/05:00pm 9.1 6.6 3.9 70 2.3 WNW 6 11 3 6 1014.2 1014.2 0.2
01/04:30pm 9.7 7.2 3.9 67 2.5 WNW 6 11 3 6 1013.9 1013.9 0.2
01/04:00pm 9.9 6.8 3.6 65 2.7 WNW 9 15 5 8 1013.8 1013.8 0.2
01/03:30pm 10.2 5.9 3.0 61 3.1 W 15 24 8 13 1013.7 1013.7 0.2
01/03:00pm 10.5 5.2 2.1 56 3.6 W 19 30 10 16 1013.4 1013.4 0.2
01/02:30pm 10.9 5.2 3.0 58 3.4 WSW 22 32 12 17 1013.3 1013.3 0.2
01/02:00pm 11.0 4.8 2.1 54 3.8 WSW 24 32 13 17 1013.2 1013.2 0.2
01/01:30pm 10.9 4.2 3.9 62 3.1 WSW 28 35 15 19 1013.3 1013.3 0.2
01/01:00pm 11.0 5.3 3.1 58 3.4 WSW 22 32 12 17 1013.2 1013.2 0.2
01/12:30pm 11.1 5.1 3.4 59 3.4 WSW 24 33 13 18 1013.1 1013.1 0.2
01/12:00pm 10.8 4.2 4.3 64 2.9 WSW 28 37 15 20 1013.2 1013.2 0.2
01/11:30am 10.7 4.7 5.3 69 2.5 WSW 26 37 14 20 1013.4 1013.4 0.2
01/11:00am 10.0 6.0 6.7 80 1.5 W 17 24 9 13 1013.1 1013.1 0.2
01/10:35am 9.9 3.8 6.8 81 1.5 WSW 28 48 15 26 1013.0 1013.0 0.2
01/10:30am 10.1 4.1 7.0 81 1.5 WSW 28 41 15 22 1012.8 1012.8 0.2
01/10:00am 9.6 3.7 7.5 87 1.0 WSW 28 46 15 25 1012.3 1012.3 0.2
01/09:30am 9.2 4.1 7.6 90 0.8 WSW 24 35 13 19 1011.3 1011.3 0.2
01/09:00am 9.4 5.3 8.6 95 0.4 W 20 30 11 16 1011.0 1011.0 3.4
01/08:30am 9.3 5.1 8.2 93 0.5 W 20 32 11 17 1010.5 1010.5 2.2
01/08:00am 10.5 5.7 8.8 89 0.8 WNW 24 48 13 26 1009.4 1009.4 1.6
01/07:30am 11.3 5.7 8.9 85 1.2 NW 28 50 15 27 1008.0 1008.0 1.4
01/07:22am 11.4 5.9 9.0 85 1.2 NW 28 50 15 27 1007.6 1007.6 1.4
01/07:00am 11.2 6.8 8.9 86 1.1 NW 22 37 12 20 1007.1 1007.1 1.2
01/06:30am 11.6 6.3 8.6 82 1.5 NNW 26 44 14 24 1006.7 1006.7 0.2
01/06:01am 12.0 6.3 8.3 78 1.8 NNW 28 46 15 25 1006.2 1006.2 0.0
01/06:00am 12.0 5.9 8.3 78 1.8 NNW 30 46 16 25 1006.1 1006.1 0.0
01/05:30am 13.0 5.8 7.5 69 2.7 NNW 35 54 19 29 1005.6 1005.6 0.0
01/05:08am 13.3 6.9 7.1 66 3.0 NNW 30 50 16 27 1005.8 1005.8 0.0
01/05:00am 13.2 7.2 7.0 66 3.0 NNW 28 44 15 24 1005.8 1005.8 0.0
01/04:30am 12.8 6.7 6.6 66 3.0 NNW 28 48 15 26 1005.8 1005.8 0.0
01/04:00am 12.8 5.8 5.9 63 3.3 NNW 32 52 17 28 1006.3 1006.3 0.0
01/03:42am 12.6 6.3 5.5 62 3.3 NNW 28 48 15 26 1006.5 1006.5 0.0
01/03:30am 12.3 6.3 5.5 63 3.2 NNW 26 41 14 22 1007.1 1007.1 0.0
01/03:00am 11.8 6.5 5.0 63 3.1 NNW 22 43 12 23 1007.9 1007.9 0.0
01/02:30am 11.5 5.4 4.7 63 3.1 NNW 26 44 14 24 1008.4 1008.4 0.0
01/02:00am 11.1 4.9 4.3 63 3.1 NNW 26 41 14 22 1008.8 1008.8 0.0
01/01:30am 10.6 3.6 4.1 64 2.9 NNW 30 50 16 27 1009.6 1009.6 0.0
01/01:05am 10.2 3.5 3.9 65 2.8 NNW 28 46 15 25 1010.0 1010.0 0.0
01/01:00am 10.2 3.5 3.9 65 2.8 NNW 28 44 15 24 1010.2 1010.2 0.0
01/12:30am 10.1 3.1 4.0 66 2.7 N 30 44 16 24 1011.1 1011.1 0.0
01/12:05am 10.1 3.5 4.3 67 2.6 NNW 28 48 15 26 1011.9 1011.9 0.0
01/12:00am 10.1 4.3 4.5 68 2.5 NNW 24 48 13 26 1012.0 1012.0 0.0
 
Date/Time
EST
Temp
°C
App
Temp
°C
Dew
Point
Rel
Hum
%
Delta-T
°C
Wind Press
QNH
hPa
Press
MSL
hPa
Rain
since 9 am
mm
Dir
 
Spd
km/h
Gust
km/h
Spd
kts
Gust
kts
31/11:50pm 10.0 3.4 4.4 68 2.5 NNW 28 50 15 27 1012.2 1012.2 0.0
31/11:30pm 9.4 4.6 4.8 73 2.1 NNW 19 35 10 19 1012.6 1012.6 0.0
31/11:00pm 6.6 4.2 4.4 86 0.9 N 6 11 3 6 1013.3 1013.3 0.0
31/10:30pm 5.6 3.0 3.4 86 0.9 N 6 7 3 4 1013.5 1013.5 0.0
31/10:00pm 5.4 2.8 3.4 87 0.8 NNW 6 9 3 5 1014.3 1014.3 0.0
31/09:30pm 3.9 1.2 2.7 92 0.5 NNW 6 9 3 5 1014.6 1014.6 0.0
31/09:00pm 4.2 1.9 3.0 92 0.5 N 4 6 2 3 1014.8 1014.8 0.0
31/08:30pm 4.5 3.0 3.0 90 0.6 CALM 0 4 0 2 1014.9 1014.9 0.0
31/08:00pm 4.7 2.1 3.2 90 0.6 NNE 6 7 3 4 1014.7 1014.7 0.0
31/07:30pm 3.5 1.1 2.2 91 0.5 NNE 4 6 2 3 1015.1 1015.1 0.0
31/07:00pm 3.2 1.4 1.3 87 0.7 CALM 0 4 0 2 1015.5 1015.5 0.0
31/06:30pm 4.4 2.3 1.8 83 1.0 NNE 2 4 1 2 1015.8 1015.8 0.0
31/06:00pm 6.4 4.1 3.0 79 1.4 N 4 6 2 3 1015.7 1015.7 0.0
31/05:30pm 7.3 5.1 3.2 75 1.7 NNW 4 4 2 2 1015.4 1015.4 0.0
31/05:00pm 9.9 7.8 3.9 66 2.6 NW 4 6 2 3 1015.4 1015.4 0.0
31/04:30pm 11.0 8.4 4.0 62 3.1 NW 7 13 4 7 1015.7 1015.7 0.0
31/04:00pm 11.0 7.9 3.5 60 3.3 NW 9 15 5 8 1016.1 1016.1 0.0
31/03:30pm 11.5 8.5 4.0 60 3.3 WNW 9 15 5 8 1016.4 1016.4 0.0
31/03:00pm 11.4 7.6 3.9 60 3.3 NW 13 22 7 12 1016.7 1016.7 0.0
31/02:30pm 11.6 7.9 4.6 62 3.2 NW 13 22 7 12 1017.1 1017.1 0.0
31/02:00pm 11.3 7.5 4.1 61 3.2 WNW 13 22 7 12 1017.3 1017.3 0.0
31/01:30pm 10.6 6.1 4.3 65 2.8 WNW 17 24 9 13 1017.8 1017.8 0.0
31/01:00pm 10.9 6.2 5.0 67 2.7 WNW 19 28 10 15 1018.7 1018.7 0.0
31/12:30pm 11.3 8.0 6.2 71 2.4 NW 13 22 7 12 1019.3 1019.3 0.0
31/12:00pm 11.3 8.0 6.2 71 2.4 NW 13 24 7 13 1019.7 1019.7 0.0
31/11:30am 10.6 6.9 6.2 74 2.0 NW 15 24 8 13 1020.5 1020.5 0.0
31/11:00am 10.2 6.5 6.4 77 1.8 NW 15 22 8 12 1020.6 1020.6 0.0
31/10:30am 9.6 5.9 6.3 80 1.5 NW 15 22 8 12 1020.5 1020.5 0.0
31/10:00am 8.9 5.4 7.0 88 0.9 NNW 15 22 8 12 1020.6 1020.6 0.0
31/09:30am 7.7 4.0 6.5 92 0.5 NNW 15 22 8 12 1020.4 1020.4 0.0
31/09:00am 7.7 4.4 6.6 93 0.5 NNW 13 20 7 11 1020.3 1020.3 3.0
31/08:30am 7.3 4.0 6.4 94 0.4 NNW 13 20 7 11 1020.1 1020.1 3.0
31/08:00am 6.6 3.6 5.9 95 0.3 NNW 11 15 6 8 1019.7 1019.7 3.0
31/07:30am 6.8 3.8 6.1 95 0.3 NNW 11 15 6 8 1019.5 1019.5 3.0
31/07:00am 6.8 4.2 6.1 95 0.3 NNW 9 13 5 7 1019.2 1019.2 3.0
31/06:30am 6.4 3.4 5.8 96 0.3 NNW 11 13 6 7 1018.8 1018.8 3.0
31/06:00am 5.7 3.2 5.0 95 0.3 NNW 7 11 4 6 1018.7 1018.7 3.0
31/05:30am 6.0 3.6 5.3 95 0.3 NNW 7 9 4 5 1018.5 1018.5 2.8
31/05:00am 6.6 4.0 5.9 95 0.3 NNW 9 13 5 7 1018.3 1018.3 2.8
31/04:30am 6.3 3.6 5.4 94 0.4 NNW 9 13 5 7 1017.9 1017.9 2.8
31/04:00am 6.9 3.8 5.7 92 0.5 NNW 11 15 6 8 1017.8 1017.8 2.8
31/03:30am 7.7 4.8 6.5 92 0.5 NW 11 22 6 12 1017.9 1017.9 2.4
31/03:00am 7.5 4.5 5.8 89 0.8 NW 11 15 6 8 1017.8 1017.8 2.4
31/02:30am 7.4 4.4 6.0 91 0.6 NW 11 17 6 9 1018.0 1018.0 2.4
31/02:00am 7.1 4.4 5.7 91 0.6 NNW 9 15 5 8 1017.5 1017.5 2.4
31/01:30am 7.6 5.0 6.1 90 0.7 NW 9 17 5 9 1017.3 1017.3 2.4
31/01:00am 7.1 4.0 5.7 91 0.6 NW 11 17 6 9 1017.2 1017.2 2.4
31/12:30am 8.0 5.5 6.5 90 0.7 NW 9 17 5 9 1017.0 1017.0 2.4
31/12:00am 8.3 5.1 6.8 90 0.7 WNW 13 24 7 13 1016.6 1016.6 2.2
 
Date/Time
EST
Temp
°C
App
Temp
°C
Dew
Point
Rel
Hum
%
Delta-T
°C
Wind Press
QNH
hPa
Press
MSL
hPa
Rain
since 9 am
mm
Dir
 
Spd
km/h
Gust
km/h
Spd
kts
Gust
kts
30/11:30pm 9.0 6.0 7.5 90 0.7 WNW 13 24 7 13 1016.4 1016.4 1.6
30/11:00pm 8.7 4.5 5.8 82 1.3 WNW 17 28 9 15 1016.0 1016.0 1.2
30/10:30pm 8.9 5.5 7.5 91 0.7 NW 15 26 8 14 1016.0 1016.0 1.2
30/10:00pm 9.1 5.7 7.5 90 0.8 WNW 15 28 8 15 1015.5 1015.5 1.2
30/09:30pm 9.0 3.9 7.6 91 0.7 WNW 24 43 13 23 1014.9 1014.9 1.2
30/09:01pm 9.6 3.2 6.9 83 1.3 NW 30 48 16 26 1013.9 1013.9 0.4
30/09:00pm 9.7 2.9 7.0 83 1.3 NW 32 48 17 26 1013.8 1013.8 0.2
30/08:38pm 10.0 3.8 6.3 78 1.7 WNW 28 52 15 28 1013.4 1013.4 0.0
30/08:30pm 10.0 3.4 6.2 77 1.8 WNW 30 50 16 27 1013.4 1013.4 0.0
30/08:00pm 10.7 3.9 5.3 69 2.5 NW 30 48 16 26 1012.5 1012.5 0.0
30/07:32pm 10.6 4.1 4.9 68 2.6 NW 28 54 15 29 1011.8 1011.8 0.0
30/07:30pm 10.7 4.3 5.0 68 2.6 NW 28 46 15 25 1011.9 1011.9 0.0
30/07:01pm 11.2 4.6 4.0 61 3.2 NW 28 52 15 28 1011.2 1011.2 0.0
30/07:00pm 11.2 4.6 4.0 61 3.2 NW 28 46 15 25 1011.3 1011.3 0.0
30/06:38pm 11.1 4.5 4.1 62 3.1 NW 28 46 15 25 1011.2 1011.2 0.0
30/06:30pm 11.5 4.4 3.5 58 3.5 NW 30 46 16 25 1011.2 1011.2 0.0
30/06:07pm 11.4 4.7 3.4 58 3.5 NW 28 48 15 26 1010.7 1010.7 0.0
30/06:00pm 11.2 5.3 3.7 60 3.3 NW 24 48 13 26 1010.8 1010.8 0.0
30/05:30pm 11.4 4.7 3.7 59 3.4 NW 28 48 15 26 1010.4 1010.4 0.0
30/05:00pm 11.5 4.4 3.8 59 3.4 NNW 30 52 16 28 1009.9 1009.9 0.0
30/04:40pm 11.4 4.8 4.2 61 3.2 NNW 28 46 15 25 1010.0 1010.0 0.0
30/04:30pm 11.2 4.3 4.4 63 3.1 NNW 30 46 16 25 1010.3 1010.3 0.0
30/04:00pm 10.9 3.1 4.8 66 2.8 NNW 35 56 19 30 1011.1 1011.1 0.0
30/03:30pm 11.9 4.3 3.9 58 3.6 NNW 33 59 18 32 1011.3 1011.3 0.0
30/03:00pm 11.7 4.3 4.0 59 3.4 NNW 32 54 17 29 1011.9 1011.9 0.0
30/02:47pm 11.8 4.8 4.1 59 3.5 NNW 30 50 16 27 1012.0 1012.0 0.0
30/02:30pm 11.5 4.9 4.3 61 3.2 NNW 28 43 15 23 1012.2 1012.2 0.0
30/02:06pm 11.8 4.8 4.3 60 3.4 NNW 30 48 16 26 1012.8 1012.8 0.0
30/02:00pm 12.0 4.4 4.0 58 3.6 NNW 33 52 18 28 1012.9 1012.9 0.0
30/01:30pm 12.2 4.7 4.4 59 3.5 NNW 33 52 18 28 1013.1 1013.1 0.0
30/01:00pm 11.7 5.1 4.2 60 3.4 NNW 28 50 15 27 1014.2 1014.2 0.0
30/12:31pm 11.6 5.0 4.3 61 3.3 NNW 28 48 15 26 1015.0 1015.0 0.0
30/12:30pm 11.6 4.7 4.6 62 3.2 NNW 30 48 16 26 1015.1 1015.1 0.0
30/12:16pm 11.3 4.7 4.1 61 3.2 N 28 50 15 27 1015.0 1015.0 0.0
30/12:00pm 11.3 5.4 4.1 61 3.2 NNW 24 39 13 21 1015.9 1015.9 0.0
30/11:34am 11.8 4.7 3.8 58 3.6 NNW 30 48 16 26 1016.5 1016.5 0.0
30/11:30am 12.0 4.6 3.8 57 3.7 NNW 32 48 17 26 1016.5 1016.5 0.0
30/11:27am 12.1 5.1 3.9 57 3.7 NNW 30 48 16 26 1016.6 1016.6 0.0
30/11:00am 11.5 6.1 4.3 61 3.2 NNW 22 39 12 21 1017.7 1017.7 0.0
30/10:30am 11.2 6.8 4.7 64 2.9 NNW 17 28 9 15 1018.4 1018.4 0.0
30/10:00am 11.2 7.6 5.1 66 2.8 NNW 13 22 7 12 1018.4 1018.4 0.0
30/09:30am 9.3 6.0 4.5 72 2.1 N 11 17 6 9 1019.3 1019.3 0.0
30/09:00am 8.3 4.5 3.9 74 1.9 NNE 13 19 7 10 1019.5 1019.5 0.0
30/08:30am 7.7 3.8 3.6 75 1.8 NNE 13 19 7 10 1019.9 1019.9 0.0
30/08:00am 6.7 3.2 3.3 79 1.4 NNE 11 17 6 9 1020.1 1020.1 0.0
30/07:30am 5.3 2.0 2.5 82 1.1 NNE 9 13 5 7 1020.2 1020.2 0.0
30/07:00am 5.7 2.4 2.5 80 1.3 N 9 13 5 7 1020.5 1020.5 0.0
30/06:30am 6.3 3.1 2.9 79 1.4 N 9 11 5 6 1020.7 1020.7 0.0
30/06:00am 5.6 2.9 2.6 81 1.2 NNW 6 9 3 5 1021.1 1021.1 0.0
30/05:30am 6.3 3.4 2.6 77 1.5 N 7 9 4 5 1021.5 1021.5 0.0
30/05:00am 8.2 4.3 3.5 72 2.0 NNW 13 22 7 12 1021.7 1021.7 0.0
30/04:30am 8.7 4.1 3.9 72 2.1 NNW 17 28 9 15 1021.9 1021.9 0.0
30/04:00am 8.2 4.4 4.0 75 1.8 NNW 13 19 7 10 1022.2 1022.2 0.0
30/03:30am 6.6 4.0 3.4 80 1.3 NNW 6 7 3 4 1022.9 1022.9 0.0
30/03:00am 7.1 4.0 3.5 78 1.5 N 9 13 5 7 1023.2 1023.2 0.0
30/02:30am 7.6 4.5 3.6 76 1.7 N 9 13 5 7 1023.6 1023.6 0.0
30/02:00am 8.2 5.2 4.0 75 1.8 N 9 13 5 7 1024.4 1024.4 0.0
30/01:30am 8.8 5.1 4.2 73 2.0 N 13 20 7 11 1024.4 1024.4 0.0
30/01:00am 9.4 5.7 4.6 72 2.1 NNW 13 19 7 10 1025.1 1025.1 0.0
30/12:30am 9.4 6.1 4.8 73 2.1 NNW 11 19 6 10 1025.6 1025.6 0.0
30/12:00am 9.3 6.0 4.7 73 2.0 NNW 11 17 6 9 1026.0 1026.0 0.0

Other Formats:

Comma delimited format used in spreadsheet applications
http://www.bom.gov.au/fwo/IDV60801/IDV60801.94886.axf

JavaScript Object Notation format (JSON) in row-major order
http://www.bom.gov.au/fwo/IDV60801/IDV60801.94886.json